sensor_id;sensor_type;location;lat;lon;timestamp;P1;durP1;ratioP1;P2;durP2;ratioP2
5811;SDS011;2932;52.400;9.558;2022-12-07T00:00:37;24.20;;;13.60;;
5811;SDS011;2932;52.400;9.558;2022-12-07T00:03:03;25.20;;;13.67;;
5811;SDS011;2932;52.400;9.558;2022-12-07T00:05:29;26.93;;;13.40;;
5811;SDS011;2932;52.400;9.558;2022-12-07T00:07:54;25.43;;;13.87;;
5811;SDS011;2932;52.400;9.558;2022-12-07T00:10:19;25.23;;;13.13;;
5811;SDS011;2932;52.400;9.558;2022-12-07T00:12:45;22.20;;;13.47;;
5811;SDS011;2932;52.400;9.558;2022-12-07T00:15:10;20.30;;;12.93;;
5811;SDS011;2932;52.400;9.558;2022-12-07T00:17:35;23.03;;;13.53;;
5811;SDS011;2932;52.400;9.558;2022-12-07T00:20:01;19.70;;;11.93;;
5811;SDS011;2932;52.400;9.558;2022-12-07T00:22:26;21.10;;;12.87;;
5811;SDS011;2932;52.400;9.558;2022-12-07T00:24:51;20.73;;;11.53;;
5811;SDS011;2932;52.400;9.558;2022-12-07T00:27:17;21.70;;;12.57;;
5811;SDS011;2932;52.400;9.558;2022-12-07T00:29:42;17.20;;;11.83;;
5811;SDS011;2932;52.400;9.558;2022-12-07T00:32:07;17.73;;;11.13;;
5811;SDS011;2932;52.400;9.558;2022-12-07T00:34:32;17.63;;;12.07;;
5811;SDS011;2932;52.400;9.558;2022-12-07T00:36:58;20.17;;;12.17;;
5811;SDS011;2932;52.400;9.558;2022-12-07T00:39:23;20.37;;;12.53;;
5811;SDS011;2932;52.400;9.558;2022-12-07T00:41:48;19.07;;;12.77;;
5811;SDS011;2932;52.400;9.558;2022-12-07T00:44:14;20.33;;;12.87;;
5811;SDS011;2932;52.400;9.558;2022-12-07T00:46:39;22.77;;;13.50;;
5811;SDS011;2932;52.400;9.558;2022-12-07T00:49:04;19.73;;;11.87;;
5811;SDS011;2932;52.400;9.558;2022-12-07T00:51:30;20.73;;;13.10;;
5811;SDS011;2932;52.400;9.558;2022-12-07T00:53:55;21.57;;;13.43;;
5811;SDS011;2932;52.400;9.558;2022-12-07T00:56:22;26.17;;;13.83;;
5811;SDS011;2932;52.400;9.558;2022-12-07T00:58:53;20.23;;;13.23;;
5811;SDS011;2932;52.400;9.558;2022-12-07T01:01:20;24.67;;;13.67;;
5811;SDS011;2932;52.400;9.558;2022-12-07T01:03:46;21.40;;;14.57;;
5811;SDS011;2932;52.400;9.558;2022-12-07T01:06:15;19.83;;;13.50;;
5811;SDS011;2932;52.400;9.558;2022-12-07T01:08:42;21.97;;;13.83;;
5811;SDS011;2932;52.400;9.558;2022-12-07T01:11:09;23.97;;;14.97;;
5811;SDS011;2932;52.400;9.558;2022-12-07T01:13:38;24.67;;;15.37;;
5811;SDS011;2932;52.400;9.558;2022-12-07T01:16:04;20.37;;;12.00;;
5811;SDS011;2932;52.400;9.558;2022-12-07T01:18:31;23.80;;;14.90;;
5811;SDS011;2932;52.400;9.558;2022-12-07T01:21:06;23.67;;;14.73;;
5811;SDS011;2932;52.400;9.558;2022-12-07T01:23:34;23.83;;;13.70;;
5811;SDS011;2932;52.400;9.558;2022-12-07T01:26:02;23.17;;;14.50;;
5811;SDS011;2932;52.400;9.558;2022-12-07T01:28:30;22.53;;;13.60;;
5811;SDS011;2932;52.400;9.558;2022-12-07T01:33:21;21.03;;;13.73;;
5811;SDS011;2932;52.400;9.558;2022-12-07T01:35:46;21.67;;;13.87;;
5811;SDS011;2932;52.400;9.558;2022-12-07T01:38:11;21.80;;;13.37;;
5811;SDS011;2932;52.400;9.558;2022-12-07T01:40:37;23.47;;;14.00;;
5811;SDS011;2932;52.400;9.558;2022-12-07T01:43:02;20.40;;;12.30;;
5811;SDS011;2932;52.400;9.558;2022-12-07T01:45:39;20.30;;;12.97;;
5811;SDS011;2932;52.400;9.558;2022-12-07T01:48:06;20.70;;;13.63;;
5811;SDS011;2932;52.400;9.558;2022-12-07T01:50:34;24.07;;;12.77;;
5811;SDS011;2932;52.400;9.558;2022-12-07T01:53:01;22.47;;;12.50;;
5811;SDS011;2932;52.400;9.558;2022-12-07T01:55:29;19.90;;;12.87;;
5811;SDS011;2932;52.400;9.558;2022-12-07T01:57:55;21.93;;;12.90;;
5811;SDS011;2932;52.400;9.558;2022-12-07T02:00:21;21.47;;;12.80;;
5811;SDS011;2932;52.400;9.558;2022-12-07T02:02:55;21.00;;;12.53;;
5811;SDS011;2932;52.400;9.558;2022-12-07T02:05:20;19.37;;;12.60;;
5811;SDS011;2932;52.400;9.558;2022-12-07T02:07:48;19.67;;;12.10;;
5811;SDS011;2932;52.400;9.558;2022-12-07T02:10:17;18.03;;;11.30;;
5811;SDS011;2932;52.400;9.558;2022-12-07T02:12:52;19.07;;;13.27;;
5811;SDS011;2932;52.400;9.558;2022-12-07T02:15:21;17.90;;;12.10;;
5811;SDS011;2932;52.400;9.558;2022-12-07T02:20:50;19.97;;;11.60;;
5811;SDS011;2932;52.400;9.558;2022-12-07T02:23:29;19.17;;;12.10;;
5811;SDS011;2932;52.400;9.558;2022-12-07T02:26:07;20.63;;;11.93;;
5811;SDS011;2932;52.400;9.558;2022-12-07T02:29:18;17.70;;;11.97;;
5811;SDS011;2932;52.400;9.558;2022-12-07T02:31:49;16.17;;;11.00;;
5811;SDS011;2932;52.400;9.558;2022-12-07T02:37:13;19.83;;;11.07;;
5811;SDS011;2932;52.400;9.558;2022-12-07T02:39:49;19.40;;;11.73;;
5811;SDS011;2932;52.400;9.558;2022-12-07T02:42:25;19.40;;;10.97;;
5811;SDS011;2932;52.400;9.558;2022-12-07T02:44:56;15.63;;;11.07;;
5811;SDS011;2932;52.400;9.558;2022-12-07T02:47:22;16.67;;;10.30;;
5811;SDS011;2932;52.400;9.558;2022-12-07T02:49:49;15.57;;;10.53;;
5811;SDS011;2932;52.400;9.558;2022-12-07T02:52:16;19.80;;;11.40;;
5811;SDS011;2932;52.400;9.558;2022-12-07T02:54:41;15.80;;;9.73;;
5811;SDS011;2932;52.400;9.558;2022-12-07T03:12:37;17.30;;;9.60;;
5811;SDS011;2932;52.400;9.558;2022-12-07T03:15:22;15.23;;;9.10;;
5811;SDS011;2932;52.400;9.558;2022-12-07T03:17:52;14.17;;;9.37;;
5811;SDS011;2932;52.400;9.558;2022-12-07T03:20:21;12.60;;;7.77;;
5811;SDS011;2932;52.400;9.558;2022-12-07T03:22:49;15.90;;;9.27;;
5811;SDS011;2932;52.400;9.558;2022-12-07T03:25:17;14.50;;;8.97;;
5811;SDS011;2932;52.400;9.558;2022-12-07T03:27:57;12.17;;;7.27;;
5811;SDS011;2932;52.400;9.558;2022-12-07T03:30:30;11.50;;;6.70;;
5811;SDS011;2932;52.400;9.558;2022-12-07T03:33:21;10.87;;;7.37;;
5811;SDS011;2932;52.400;9.558;2022-12-07T03:36:04;12.97;;;7.20;;
5811;SDS011;2932;52.400;9.558;2022-12-07T03:38:40;16.27;;;6.67;;
5811;SDS011;2932;52.400;9.558;2022-12-07T03:41:12;12.83;;;8.47;;
5811;SDS011;2932;52.400;9.558;2022-12-07T03:43:44;12.87;;;7.93;;
5811;SDS011;2932;52.400;9.558;2022-12-07T03:46:20;13.60;;;7.57;;
5811;SDS011;2932;52.400;9.558;2022-12-07T03:52:24;11.17;;;6.30;;
5811;SDS011;2932;52.400;9.558;2022-12-07T03:54:59;13.33;;;7.87;;
5811;SDS011;2932;52.400;9.558;2022-12-07T03:57:34;14.37;;;8.03;;
5811;SDS011;2932;52.400;9.558;2022-12-07T04:00:03;13.60;;;8.60;;
5811;SDS011;2932;52.400;9.558;2022-12-07T04:02:30;17.77;;;8.90;;
5811;SDS011;2932;52.400;9.558;2022-12-07T04:04:57;16.73;;;8.60;;
5811;SDS011;2932;52.400;9.558;2022-12-07T04:07:22;17.57;;;9.17;;
5811;SDS011;2932;52.400;9.558;2022-12-07T04:09:47;12.90;;;8.00;;
5811;SDS011;2932;52.400;9.558;2022-12-07T04:12:13;11.77;;;7.60;;
5811;SDS011;2932;52.400;9.558;2022-12-07T04:14:38;13.60;;;8.13;;
5811;SDS011;2932;52.400;9.558;2022-12-07T04:17:04;10.87;;;5.47;;
5811;SDS011;2932;52.400;9.558;2022-12-07T04:19:30;12.80;;;7.73;;
5811;SDS011;2932;52.400;9.558;2022-12-07T04:21:57;13.40;;;8.23;;
5811;SDS011;2932;52.400;9.558;2022-12-07T04:24:24;13.20;;;8.23;;
5811;SDS011;2932;52.400;9.558;2022-12-07T04:26:50;15.93;;;7.73;;
5811;SDS011;2932;52.400;9.558;2022-12-07T04:29:16;19.00;;;7.97;;
5811;SDS011;2932;52.400;9.558;2022-12-07T04:31:41;13.57;;;7.40;;
5811;SDS011;2932;52.400;9.558;2022-12-07T04:34:08;16.80;;;8.00;;
5811;SDS011;2932;52.400;9.558;2022-12-07T04:36:34;10.87;;;6.67;;
5811;SDS011;2932;52.400;9.558;2022-12-07T04:39:00;15.13;;;8.07;;
5811;SDS011;2932;52.400;9.558;2022-12-07T04:41:26;10.33;;;6.90;;
5811;SDS011;2932;52.400;9.558;2022-12-07T04:46:25;10.77;;;6.73;;
5811;SDS011;2932;52.400;9.558;2022-12-07T04:48:51;14.00;;;7.40;;
5811;SDS011;2932;52.400;9.558;2022-12-07T04:51:22;17.50;;;7.60;;
5811;SDS011;2932;52.400;9.558;2022-12-07T04:53:49;9.77;;;5.57;;
5811;SDS011;2932;52.400;9.558;2022-12-07T04:56:15;12.23;;;6.33;;
5811;SDS011;2932;52.400;9.558;2022-12-07T04:58:41;15.47;;;6.13;;
5811;SDS011;2932;52.400;9.558;2022-12-07T05:01:08;13.20;;;6.40;;
5811;SDS011;2932;52.400;9.558;2022-12-07T05:03:33;11.20;;;6.33;;
5811;SDS011;2932;52.400;9.558;2022-12-07T05:06:00;13.67;;;7.03;;
5811;SDS011;2932;52.400;9.558;2022-12-07T05:08:25;13.40;;;7.00;;
5811;SDS011;2932;52.400;9.558;2022-12-07T05:10:50;13.30;;;6.57;;
5811;SDS011;2932;52.400;9.558;2022-12-07T05:13:16;12.13;;;6.50;;
5811;SDS011;2932;52.400;9.558;2022-12-07T05:15:41;12.27;;;7.17;;
5811;SDS011;2932;52.400;9.558;2022-12-07T05:18:08;13.90;;;6.27;;
5811;SDS011;2932;52.400;9.558;2022-12-07T05:20:34;15.57;;;6.47;;
5811;SDS011;2932;52.400;9.558;2022-12-07T05:22:59;11.47;;;6.37;;
5811;SDS011;2932;52.400;9.558;2022-12-07T05:25:25;12.43;;;6.63;;
5811;SDS011;2932;52.400;9.558;2022-12-07T05:27:50;12.13;;;6.33;;
5811;SDS011;2932;52.400;9.558;2022-12-07T05:30:16;11.27;;;5.87;;
5811;SDS011;2932;52.400;9.558;2022-12-07T05:32:41;13.33;;;5.53;;
5811;SDS011;2932;52.400;9.558;2022-12-07T05:35:07;12.87;;;5.30;;
5811;SDS011;2932;52.400;9.558;2022-12-07T05:37:32;14.00;;;6.07;;
5811;SDS011;2932;52.400;9.558;2022-12-07T05:39:58;13.17;;;5.70;;
5811;SDS011;2932;52.400;9.558;2022-12-07T05:42:23;13.33;;;6.93;;
5811;SDS011;2932;52.400;9.558;2022-12-07T05:44:49;15.50;;;6.47;;
5811;SDS011;2932;52.400;9.558;2022-12-07T05:47:14;18.70;;;6.10;;
5811;SDS011;2932;52.400;9.558;2022-12-07T05:49:40;11.33;;;5.70;;
5811;SDS011;2932;52.400;9.558;2022-12-07T05:52:06;9.83;;;5.73;;
5811;SDS011;2932;52.400;9.558;2022-12-07T05:54:31;11.43;;;5.30;;
5811;SDS011;2932;52.400;9.558;2022-12-07T05:56:57;9.40;;;5.20;;
5811;SDS011;2932;52.400;9.558;2022-12-07T05:59:22;7.47;;;4.73;;
5811;SDS011;2932;52.400;9.558;2022-12-07T06:04:17;11.27;;;5.27;;
5811;SDS011;2932;52.400;9.558;2022-12-07T06:06:43;7.97;;;4.87;;
5811;SDS011;2932;52.400;9.558;2022-12-07T06:09:08;9.57;;;4.10;;
5811;SDS011;2932;52.400;9.558;2022-12-07T06:11:34;11.20;;;4.67;;
5811;SDS011;2932;52.400;9.558;2022-12-07T06:14:18;7.83;;;4.20;;
5811;SDS011;2932;52.400;9.558;2022-12-07T06:16:43;10.37;;;4.03;;
5811;SDS011;2932;52.400;9.558;2022-12-07T06:19:09;9.00;;;4.10;;
5811;SDS011;2932;52.400;9.558;2022-12-07T06:21:34;9.30;;;3.87;;
5811;SDS011;2932;52.400;9.558;2022-12-07T06:24:00;7.30;;;3.60;;
5811;SDS011;2932;52.400;9.558;2022-12-07T06:26:25;10.87;;;3.87;;
5811;SDS011;2932;52.400;9.558;2022-12-07T06:28:50;6.57;;;3.50;;
5811;SDS011;2932;52.400;9.558;2022-12-07T06:31:16;7.60;;;4.17;;
5811;SDS011;2932;52.400;9.558;2022-12-07T06:33:41;8.80;;;3.50;;
5811;SDS011;2932;52.400;9.558;2022-12-07T06:36:07;10.47;;;3.00;;
5811;SDS011;2932;52.400;9.558;2022-12-07T06:38:33;6.30;;;3.13;;
5811;SDS011;2932;52.400;9.558;2022-12-07T06:40:58;7.63;;;3.00;;
5811;SDS011;2932;52.400;9.558;2022-12-07T06:43:24;5.93;;;2.93;;
5811;SDS011;2932;52.400;9.558;2022-12-07T06:45:49;8.93;;;3.20;;
5811;SDS011;2932;52.400;9.558;2022-12-07T06:48:15;7.77;;;2.70;;
5811;SDS011;2932;52.400;9.558;2022-12-07T06:50:41;4.40;;;2.73;;
5811;SDS011;2932;52.400;9.558;2022-12-07T06:53:08;5.50;;;2.30;;
5811;SDS011;2932;52.400;9.558;2022-12-07T06:55:34;6.73;;;2.40;;
5811;SDS011;2932;52.400;9.558;2022-12-07T06:57:59;8.03;;;2.73;;
5811;SDS011;2932;52.400;9.558;2022-12-07T07:00:26;7.73;;;2.50;;
5811;SDS011;2932;52.400;9.558;2022-12-07T07:02:51;5.43;;;2.50;;
5811;SDS011;2932;52.400;9.558;2022-12-07T07:05:17;5.97;;;2.50;;
5811;SDS011;2932;52.400;9.558;2022-12-07T07:07:42;5.00;;;2.90;;
5811;SDS011;2932;52.400;9.558;2022-12-07T07:10:08;5.63;;;2.47;;
5811;SDS011;2932;52.400;9.558;2022-12-07T07:12:33;6.20;;;2.10;;
5811;SDS011;2932;52.400;9.558;2022-12-07T07:14:59;5.70;;;2.27;;
5811;SDS011;2932;52.400;9.558;2022-12-07T07:17:24;4.60;;;2.03;;
5811;SDS011;2932;52.400;9.558;2022-12-07T07:19:49;3.33;;;2.00;;
5811;SDS011;2932;52.400;9.558;2022-12-07T07:22:15;3.80;;;2.10;;
5811;SDS011;2932;52.400;9.558;2022-12-07T07:24:40;3.83;;;1.60;;
5811;SDS011;2932;52.400;9.558;2022-12-07T07:27:05;5.67;;;1.50;;
5811;SDS011;2932;52.400;9.558;2022-12-07T07:29:34;5.57;;;1.77;;
5811;SDS011;2932;52.400;9.558;2022-12-07T07:31:59;4.37;;;1.60;;
5811;SDS011;2932;52.400;9.558;2022-12-07T07:34:25;3.37;;;1.90;;
5811;SDS011;2932;52.400;9.558;2022-12-07T07:36:50;3.27;;;2.07;;
5811;SDS011;2932;52.400;9.558;2022-12-07T07:39:15;6.17;;;1.40;;
5811;SDS011;2932;52.400;9.558;2022-12-07T07:41:41;7.87;;;1.70;;
5811;SDS011;2932;52.400;9.558;2022-12-07T07:44:06;4.47;;;1.70;;
5811;SDS011;2932;52.400;9.558;2022-12-07T07:46:31;3.50;;;1.37;;
5811;SDS011;2932;52.400;9.558;2022-12-07T07:48:58;2.87;;;1.10;;
5811;SDS011;2932;52.400;9.558;2022-12-07T07:51:23;5.33;;;1.40;;
5811;SDS011;2932;52.400;9.558;2022-12-07T07:53:48;6.67;;;1.50;;
5811;SDS011;2932;52.400;9.558;2022-12-07T07:56:14;3.20;;;1.23;;
5811;SDS011;2932;52.400;9.558;2022-12-07T07:58:39;6.47;;;1.80;;
5811;SDS011;2932;52.400;9.558;2022-12-07T08:01:05;3.67;;;1.80;;
5811;SDS011;2932;52.400;9.558;2022-12-07T08:03:31;5.03;;;1.50;;
5811;SDS011;2932;52.400;9.558;2022-12-07T08:05:57;10.93;;;1.63;;
5811;SDS011;2932;52.400;9.558;2022-12-07T08:08:22;7.00;;;1.23;;
5811;SDS011;2932;52.400;9.558;2022-12-07T08:10:47;3.47;;;1.10;;
5811;SDS011;2932;52.400;9.558;2022-12-07T08:13:15;2.40;;;0.93;;
5811;SDS011;2932;52.400;9.558;2022-12-07T08:15:45;7.10;;;1.27;;
5811;SDS011;2932;52.400;9.558;2022-12-07T08:18:13;3.10;;;0.97;;
5811;SDS011;2932;52.400;9.558;2022-12-07T08:20:39;7.10;;;1.60;;
5811;SDS011;2932;52.400;9.558;2022-12-07T08:23:06;2.27;;;0.80;;
5811;SDS011;2932;52.400;9.558;2022-12-07T08:25:32;7.90;;;1.00;;
5811;SDS011;2932;52.400;9.558;2022-12-07T08:27:58;4.40;;;1.30;;
5811;SDS011;2932;52.400;9.558;2022-12-07T08:30:24;4.90;;;0.90;;
5811;SDS011;2932;52.400;9.558;2022-12-07T08:32:49;4.20;;;1.10;;
5811;SDS011;2932;52.400;9.558;2022-12-07T08:35:15;3.87;;;1.20;;
5811;SDS011;2932;52.400;9.558;2022-12-07T08:37:40;2.37;;;1.13;;
5811;SDS011;2932;52.400;9.558;2022-12-07T08:40:07;2.80;;;0.80;;
5811;SDS011;2932;52.400;9.558;2022-12-07T08:42:34;4.40;;;1.07;;
5811;SDS011;2932;52.400;9.558;2022-12-07T08:45:06;2.93;;;1.10;;
5811;SDS011;2932;52.400;9.558;2022-12-07T08:47:33;3.73;;;1.07;;
5811;SDS011;2932;52.400;9.558;2022-12-07T08:50:01;4.03;;;1.07;;
5811;SDS011;2932;52.400;9.558;2022-12-07T08:52:29;2.30;;;1.00;;
5811;SDS011;2932;52.400;9.558;2022-12-07T08:54:55;4.33;;;1.30;;
5811;SDS011;2932;52.400;9.558;2022-12-07T08:57:20;5.63;;;1.43;;
5811;SDS011;2932;52.400;9.558;2022-12-07T08:59:46;4.67;;;1.20;;
5811;SDS011;2932;52.400;9.558;2022-12-07T09:02:12;3.77;;;1.00;;
5811;SDS011;2932;52.400;9.558;2022-12-07T09:04:38;4.40;;;0.90;;
5811;SDS011;2932;52.400;9.558;2022-12-07T09:07:03;2.77;;;1.03;;
5811;SDS011;2932;52.400;9.558;2022-12-07T09:09:29;5.83;;;1.10;;
5811;SDS011;2932;52.400;9.558;2022-12-07T09:11:54;4.17;;;0.90;;
5811;SDS011;2932;52.400;9.558;2022-12-07T09:14:20;5.23;;;1.03;;
5811;SDS011;2932;52.400;9.558;2022-12-07T09:16:52;5.13;;;1.17;;
5811;SDS011;2932;52.400;9.558;2022-12-07T09:19:17;4.10;;;0.87;;
5811;SDS011;2932;52.400;9.558;2022-12-07T09:21:43;2.47;;;0.90;;
5811;SDS011;2932;52.400;9.558;2022-12-07T09:24:08;2.93;;;1.00;;
5811;SDS011;2932;52.400;9.558;2022-12-07T09:26:34;5.67;;;1.07;;
5811;SDS011;2932;52.400;9.558;2022-12-07T09:29:00;2.53;;;0.87;;
5811;SDS011;2932;52.400;9.558;2022-12-07T09:31:27;2.33;;;0.73;;
5811;SDS011;2932;52.400;9.558;2022-12-07T09:33:56;3.90;;;1.03;;
5811;SDS011;2932;52.400;9.558;2022-12-07T09:36:23;3.90;;;1.00;;
5811;SDS011;2932;52.400;9.558;2022-12-07T09:38:49;1.93;;;1.10;;
5811;SDS011;2932;52.400;9.558;2022-12-07T09:41:15;1.47;;;0.90;;
5811;SDS011;2932;52.400;9.558;2022-12-07T09:43:41;1.97;;;0.73;;
5811;SDS011;2932;52.400;9.558;2022-12-07T09:46:08;4.73;;;0.80;;
5811;SDS011;2932;52.400;9.558;2022-12-07T09:48:42;3.53;;;0.90;;
5811;SDS011;2932;52.400;9.558;2022-12-07T09:51:17;3.97;;;0.60;;
5811;SDS011;2932;52.400;9.558;2022-12-07T09:53:45;5.30;;;0.77;;
5811;SDS011;2932;52.400;9.558;2022-12-07T09:56:15;1.23;;;0.73;;
5811;SDS011;2932;52.400;9.558;2022-12-07T09:58:45;3.60;;;0.60;;
5811;SDS011;2932;52.400;9.558;2022-12-07T10:01:13;3.70;;;0.60;;
5811;SDS011;2932;52.400;9.558;2022-12-07T10:06:37;6.30;;;0.90;;
5811;SDS011;2932;52.400;9.558;2022-12-07T10:09:08;4.93;;;0.60;;
5811;SDS011;2932;52.400;9.558;2022-12-07T10:11:39;7.07;;;1.87;;
5811;SDS011;2932;52.400;9.558;2022-12-07T10:14:23;1.87;;;0.73;;
5811;SDS011;2932;52.400;9.558;2022-12-07T10:16:52;1.97;;;0.70;;
5811;SDS011;2932;52.400;9.558;2022-12-07T10:21:48;0.67;;;0.63;;
5811;SDS011;2932;52.400;9.558;2022-12-07T10:24:29;2.30;;;0.73;;
5811;SDS011;2932;52.400;9.558;2022-12-07T10:26:55;4.47;;;0.80;;
5811;SDS011;2932;52.400;9.558;2022-12-07T10:29:22;5.60;;;0.83;;
5811;SDS011;2932;52.400;9.558;2022-12-07T10:34:38;3.50;;;1.30;;
5811;SDS011;2932;52.400;9.558;2022-12-07T10:37:21;3.63;;;0.80;;
5811;SDS011;2932;52.400;9.558;2022-12-07T10:39:54;4.10;;;1.10;;
5811;SDS011;2932;52.400;9.558;2022-12-07T10:44:48;5.50;;;1.03;;
5811;SDS011;2932;52.400;9.558;2022-12-07T10:57:55;3.90;;;1.10;;
5811;SDS011;2932;52.400;9.558;2022-12-07T11:00:37;5.30;;;1.20;;
5811;SDS011;2932;52.400;9.558;2022-12-07T11:08:58;4.13;;;1.63;;
5811;SDS011;2932;52.400;9.558;2022-12-07T11:11:38;5.37;;;1.40;;
5811;SDS011;2932;52.400;9.558;2022-12-07T11:14:31;3.53;;;1.43;;
5811;SDS011;2932;52.400;9.558;2022-12-07T11:17:27;6.07;;;1.50;;
5811;SDS011;2932;52.400;9.558;2022-12-07T11:20:21;6.57;;;1.33;;
5811;SDS011;2932;52.400;9.558;2022-12-07T11:34:13;4.23;;;1.20;;
5811;SDS011;2932;52.400;9.558;2022-12-07T11:36:49;3.27;;;0.97;;
5811;SDS011;2932;52.400;9.558;2022-12-07T11:39:29;4.50;;;1.43;;
5811;SDS011;2932;52.400;9.558;2022-12-07T11:42:04;2.63;;;1.10;;
5811;SDS011;2932;52.400;9.558;2022-12-07T11:44:47;1.67;;;1.13;;
5811;SDS011;2932;52.400;9.558;2022-12-07T11:47:16;3.47;;;1.17;;
5811;SDS011;2932;52.400;9.558;2022-12-07T11:49:58;3.27;;;1.00;;
5811;SDS011;2932;52.400;9.558;2022-12-07T11:52:53;3.77;;;1.30;;
5811;SDS011;2932;52.400;9.558;2022-12-07T12:01:07;5.07;;;1.30;;
5811;SDS011;2932;52.400;9.558;2022-12-07T12:03:50;8.30;;;1.50;;
5811;SDS011;2932;52.400;9.558;2022-12-07T12:06:23;4.13;;;1.07;;
5811;SDS011;2932;52.400;9.558;2022-12-07T12:09:14;3.57;;;0.93;;
5811;SDS011;2932;52.400;9.558;2022-12-07T12:20:47;5.60;;;1.67;;
5811;SDS011;2932;52.400;9.558;2022-12-07T12:23:21;6.67;;;2.00;;
5811;SDS011;2932;52.400;9.558;2022-12-07T12:25:56;5.03;;;1.10;;
5811;SDS011;2932;52.400;9.558;2022-12-07T12:28:33;4.73;;;1.37;;
5811;SDS011;2932;52.400;9.558;2022-12-07T12:33:30;3.83;;;1.33;;
5811;SDS011;2932;52.400;9.558;2022-12-07T12:46:48;4.60;;;1.13;;
5811;SDS011;2932;52.400;9.558;2022-12-07T13:01:49;6.23;;;1.20;;
5811;SDS011;2932;52.400;9.558;2022-12-07T13:06:45;6.53;;;1.17;;
5811;SDS011;2932;52.400;9.558;2022-12-07T13:09:24;4.67;;;0.97;;
5811;SDS011;2932;52.400;9.558;2022-12-07T13:12:01;7.13;;;1.23;;
5811;SDS011;2932;52.400;9.558;2022-12-07T13:20:06;2.17;;;0.80;;
5811;SDS011;2932;52.400;9.558;2022-12-07T13:30:46;5.13;;;0.80;;
5811;SDS011;2932;52.400;9.558;2022-12-07T13:33:33;5.87;;;0.93;;
5811;SDS011;2932;52.400;9.558;2022-12-07T13:35:59;5.83;;;1.10;;
5811;SDS011;2932;52.400;9.558;2022-12-07T13:38:27;3.80;;;0.97;;
5811;SDS011;2932;52.400;9.558;2022-12-07T13:41:14;3.80;;;1.20;;
5811;SDS011;2932;52.400;9.558;2022-12-07T13:46:14;5.90;;;1.10;;
5811;SDS011;2932;52.400;9.558;2022-12-07T13:48:44;2.47;;;1.13;;
5811;SDS011;2932;52.400;9.558;2022-12-07T13:51:21;3.97;;;0.80;;
5811;SDS011;2932;52.400;9.558;2022-12-07T13:53:52;5.20;;;1.80;;
5811;SDS011;2932;52.400;9.558;2022-12-07T13:56:20;2.47;;;1.10;;
5811;SDS011;2932;52.400;9.558;2022-12-07T13:58:47;4.43;;;1.10;;
5811;SDS011;2932;52.400;9.558;2022-12-07T14:01:13;4.00;;;1.00;;
5811;SDS011;2932;52.400;9.558;2022-12-07T14:03:38;5.83;;;1.23;;
5811;SDS011;2932;52.400;9.558;2022-12-07T14:08:44;5.53;;;0.80;;
5811;SDS011;2932;52.400;9.558;2022-12-07T14:11:19;3.63;;;0.80;;
5811;SDS011;2932;52.400;9.558;2022-12-07T14:13:56;2.80;;;1.07;;
5811;SDS011;2932;52.400;9.558;2022-12-07T14:16:33;4.83;;;0.80;;
5811;SDS011;2932;52.400;9.558;2022-12-07T14:19:02;3.93;;;1.27;;
5811;SDS011;2932;52.400;9.558;2022-12-07T14:21:32;4.87;;;1.30;;
5811;SDS011;2932;52.400;9.558;2022-12-07T14:24:09;3.07;;;0.93;;
5811;SDS011;2932;52.400;9.558;2022-12-07T14:26:40;4.60;;;1.23;;
5811;SDS011;2932;52.400;9.558;2022-12-07T14:31:50;5.63;;;0.90;;
5811;SDS011;2932;52.400;9.558;2022-12-07T14:34:16;1.40;;;0.73;;
5811;SDS011;2932;52.400;9.558;2022-12-07T14:36:44;2.87;;;0.50;;
5811;SDS011;2932;52.400;9.558;2022-12-07T14:39:09;4.83;;;1.60;;
5811;SDS011;2932;52.400;9.558;2022-12-07T14:41:34;3.77;;;1.30;;
5811;SDS011;2932;52.400;9.558;2022-12-07T14:44:15;3.73;;;1.10;;
5811;SDS011;2932;52.400;9.558;2022-12-07T14:46:41;4.57;;;0.87;;
5811;SDS011;2932;52.400;9.558;2022-12-07T14:49:06;6.10;;;0.90;;
5811;SDS011;2932;52.400;9.558;2022-12-07T14:51:31;5.43;;;1.20;;
5811;SDS011;2932;52.400;9.558;2022-12-07T14:53:58;3.77;;;1.23;;
5811;SDS011;2932;52.400;9.558;2022-12-07T14:56:24;3.17;;;1.13;;
5811;SDS011;2932;52.400;9.558;2022-12-07T14:58:50;9.47;;;1.80;;
5811;SDS011;2932;52.400;9.558;2022-12-07T15:01:15;4.80;;;1.53;;
5811;SDS011;2932;52.400;9.558;2022-12-07T15:03:41;5.43;;;1.50;;
5811;SDS011;2932;52.400;9.558;2022-12-07T15:06:06;3.97;;;1.20;;
5811;SDS011;2932;52.400;9.558;2022-12-07T15:08:32;8.17;;;2.00;;
5811;SDS011;2932;52.400;9.558;2022-12-07T15:10:57;4.23;;;2.20;;
5811;SDS011;2932;52.400;9.558;2022-12-07T15:13:23;8.57;;;1.90;;
5811;SDS011;2932;52.400;9.558;2022-12-07T15:16:19;7.43;;;2.70;;
5811;SDS011;2932;52.400;9.558;2022-12-07T15:18:45;3.50;;;2.07;;
5811;SDS011;2932;52.400;9.558;2022-12-07T15:21:14;4.77;;;1.40;;
5811;SDS011;2932;52.400;9.558;2022-12-07T15:23:40;6.33;;;1.43;;
5811;SDS011;2932;52.400;9.558;2022-12-07T15:26:05;5.80;;;1.77;;
5811;SDS011;2932;52.400;9.558;2022-12-07T15:28:30;8.67;;;2.03;;
5811;SDS011;2932;52.400;9.558;2022-12-07T15:30:56;4.97;;;1.13;;
5811;SDS011;2932;52.400;9.558;2022-12-07T15:33:21;4.13;;;1.33;;
5811;SDS011;2932;52.400;9.558;2022-12-07T15:35:46;6.73;;;1.63;;
5811;SDS011;2932;52.400;9.558;2022-12-07T15:38:12;4.37;;;1.30;;
5811;SDS011;2932;52.400;9.558;2022-12-07T15:40:37;4.13;;;1.40;;
5811;SDS011;2932;52.400;9.558;2022-12-07T15:43:05;6.50;;;1.90;;
5811;SDS011;2932;52.400;9.558;2022-12-07T15:45:50;7.23;;;1.77;;
5811;SDS011;2932;52.400;9.558;2022-12-07T15:48:16;3.77;;;1.77;;
5811;SDS011;2932;52.400;9.558;2022-12-07T15:50:41;5.53;;;1.50;;
5811;SDS011;2932;52.400;9.558;2022-12-07T15:53:07;6.97;;;1.73;;
5811;SDS011;2932;52.400;9.558;2022-12-07T15:55:32;4.10;;;1.70;;
5811;SDS011;2932;52.400;9.558;2022-12-07T15:57:57;5.10;;;1.70;;
5811;SDS011;2932;52.400;9.558;2022-12-07T16:00:23;7.10;;;1.83;;
5811;SDS011;2932;52.400;9.558;2022-12-07T16:02:48;4.53;;;1.53;;
5811;SDS011;2932;52.400;9.558;2022-12-07T16:05:13;10.57;;;1.80;;
5811;SDS011;2932;52.400;9.558;2022-12-07T16:07:39;6.27;;;1.77;;
5811;SDS011;2932;52.400;9.558;2022-12-07T16:10:04;8.33;;;2.00;;
5811;SDS011;2932;52.400;9.558;2022-12-07T16:12:30;3.17;;;1.70;;
5811;SDS011;2932;52.400;9.558;2022-12-07T16:14:55;6.50;;;1.90;;
5811;SDS011;2932;52.400;9.558;2022-12-07T16:17:21;4.10;;;2.20;;
5811;SDS011;2932;52.400;9.558;2022-12-07T16:19:46;6.53;;;2.50;;
5811;SDS011;2932;52.400;9.558;2022-12-07T16:22:11;3.63;;;2.00;;
5811;SDS011;2932;52.400;9.558;2022-12-07T16:24:37;11.10;;;2.20;;
5811;SDS011;2932;52.400;9.558;2022-12-07T16:27:02;5.57;;;1.60;;
5811;SDS011;2932;52.400;9.558;2022-12-07T16:29:30;4.20;;;1.90;;
5811;SDS011;2932;52.400;9.558;2022-12-07T16:31:58;4.33;;;2.20;;
5811;SDS011;2932;52.400;9.558;2022-12-07T16:34:26;4.77;;;2.20;;
5811;SDS011;2932;52.400;9.558;2022-12-07T16:36:51;5.50;;;2.07;;
5811;SDS011;2932;52.400;9.558;2022-12-07T16:39:16;7.33;;;2.63;;
5811;SDS011;2932;52.400;9.558;2022-12-07T16:41:43;4.77;;;2.43;;
5811;SDS011;2932;52.400;9.558;2022-12-07T16:44:10;9.00;;;4.03;;
5811;SDS011;2932;52.400;9.558;2022-12-07T16:46:37;7.27;;;2.93;;
5811;SDS011;2932;52.400;9.558;2022-12-07T16:49:03;6.20;;;3.07;;
5811;SDS011;2932;52.400;9.558;2022-12-07T16:51:29;4.80;;;3.60;;
5811;SDS011;2932;52.400;9.558;2022-12-07T16:53:55;3.70;;;3.13;;
5811;SDS011;2932;52.400;9.558;2022-12-07T16:56:20;5.60;;;2.60;;
5811;SDS011;2932;52.400;9.558;2022-12-07T16:58:46;4.30;;;2.77;;
5811;SDS011;2932;52.400;9.558;2022-12-07T17:01:17;5.63;;;2.77;;
5811;SDS011;2932;52.400;9.558;2022-12-07T17:03:47;5.53;;;2.70;;
5811;SDS011;2932;52.400;9.558;2022-12-07T17:06:15;3.80;;;2.50;;
5811;SDS011;2932;52.400;9.558;2022-12-07T17:08:45;12.90;;;3.70;;
5811;SDS011;2932;52.400;9.558;2022-12-07T17:11:18;8.97;;;4.37;;
5811;SDS011;2932;52.400;9.558;2022-12-07T17:13:46;13.63;;;7.27;;
5811;SDS011;2932;52.400;9.558;2022-12-07T17:16:32;4.70;;;2.80;;
5811;SDS011;2932;52.400;9.558;2022-12-07T17:18:58;5.30;;;2.90;;
5811;SDS011;2932;52.400;9.558;2022-12-07T17:21:24;9.30;;;2.97;;
5811;SDS011;2932;52.400;9.558;2022-12-07T17:23:50;12.70;;;3.60;;
5811;SDS011;2932;52.400;9.558;2022-12-07T17:26:17;11.03;;;3.40;;
5811;SDS011;2932;52.400;9.558;2022-12-07T17:28:45;10.10;;;2.97;;
5811;SDS011;2932;52.400;9.558;2022-12-07T17:31:12;4.73;;;3.00;;